Time;durP1;ratioP1;P1;durP2;ratioP2;P2;SDS_P1;SDS_P2;PMS_P1;PMS_P2;Temp;Humidity;BMP_temperature;BMP_pressure;BME280_temperature;BME280_humidity;BME280_pressure;Samples;Min_cycle;Max_cycle;Signal;HPM_P1;HPM_P2
2022/01/29 00:02:18;;;;;;;2.42;1.20;;;8.90;79.40;;;;;;5114711;28;20040;-78
2022/01/29 00:05:22;;;;;;;2.00;1.00;;;8.90;79.30;;;;;;5114770;28;20039;-78
2022/01/29 00:08:26;;;;;;;2.42;1.30;;;8.90;79.10;;;;;;5114808;28;20039;-77
2022/01/29 00:11:35;;;;;;;4.07;1.35;;;8.90;79.20;;;;;;5114523;28;20146;-76
2022/01/29 00:14:39;;;;;;;2.78;1.10;;;8.90;79.10;;;;;;5113571;28;20431;-76
2022/01/29 00:17:44;;;;;;;2.08;1.00;;;8.80;80.20;;;;;;5114460;28;20039;-76
2022/01/29 00:20:48;;;;;;;1.95;1.10;;;8.70;81.10;;;;;;5114522;28;20044;-76
2022/01/29 00:23:52;;;;;;;2.25;1.50;;;8.60;81.60;;;;;;5114526;28;20031;-78
2022/01/29 00:26:56;;;;;;;2.88;1.52;;;8.60;82.40;;;;;;5114558;28;20035;-76
2022/01/29 00:30:05;;;;;;;3.10;1.50;;;8.40;83.10;;;;;;5113393;28;20039;-77
2022/01/29 00:33:10;;;;;;;3.15;1.58;;;8.40;83.80;;;;;;5114236;28;20035;-76
2022/01/29 00:36:14;;;;;;;3.70;1.48;;;8.30;84.00;;;;;;5113963;28;20048;-77
2022/01/29 00:39:18;;;;;;;2.00;1.20;;;8.40;84.10;;;;;;5114773;28;20764;-77
2022/01/29 00:42:23;;;;;;;1.50;1.08;;;8.40;84.50;;;;;;5114276;28;20048;-77
2022/01/29 00:45:28;;;;;;;3.33;1.00;;;8.40;84.50;;;;;;5113116;28;20482;-77
2022/01/29 00:48:31;;;;;;;2.00;0.93;;;8.30;84.30;;;;;;5112941;28;20047;-77
2022/01/29 00:51:36;;;;;;;2.22;1.17;;;8.30;84.60;;;;;;5113880;28;20035;-77
2022/01/29 00:54:40;;;;;;;1.92;1.10;;;8.20;84.60;;;;;;5113085;28;20625;-79
2022/01/29 00:57:44;;;;;;;2.33;1.05;;;8.10;84.80;;;;;;5113386;28;20078;-78
2022/01/29 01:00:48;;;;;;;2.20;1.10;;;8.00;85.00;;;;;;5113612;28;20475;-76
2022/01/29 01:03:53;;;;;;;1.42;0.82;;;8.20;80.30;;;;;;5113851;28;20051;-76
2022/01/29 01:06:57;;;;;;;1.85;1.08;;;8.30;80.70;;;;;;5113629;28;20043;-77
2022/01/29 01:10:01;;;;;;;3.28;1.20;;;8.50;79.50;;;;;;5113454;28;20043;-77
2022/01/29 01:13:06;;;;;;;1.88;1.15;;;8.50;78.80;;;;;;5112594;28;20376;-77
2022/01/29 01:16:10;;;;;;;1.48;0.95;;;8.60;75.20;;;;;;5113001;28;20055;-76
2022/01/29 01:19:14;;;;;;;1.27;1.10;;;8.80;73.90;;;;;;5113071;28;20040;-77
2022/01/29 01:22:18;;;;;;;2.13;1.10;;;8.90;75.40;;;;;;5113056;28;20039;-76
2022/01/29 01:25:23;;;;;;;4.43;1.30;;;8.90;76.80;;;;;;5100864;28;20039;-76
2022/01/29 01:28:27;;;;;;;2.95;1.23;;;8.80;79.90;;;;;;5113283;28;20371;-77
2022/01/29 01:31:31;;;;;;;3.30;1.30;;;8.80;78.50;;;;;;5112917;28;20032;-77
2022/01/29 01:34:38;;;;;;;4.72;1.52;;;8.70;78.80;;;;;;5112320;28;20035;-76
2022/01/29 01:37:57;;;;;;;2.30;1.20;;;8.70;74.20;;;;;;5112656;28;20051;-76
2022/01/29 01:41:06;;;;;;;2.58;1.13;;;8.80;74.00;;;;;;5112828;28;20467;-76
2022/01/29 01:44:11;;;;;;;3.72;1.52;;;8.80;74.10;;;;;;5113070;28;20043;-77
2022/01/29 01:47:17;;;;;;;3.05;1.30;;;8.80;73.40;;;;;;5112210;28;20044;-76
2022/01/29 01:50:21;;;;;;;3.28;1.45;;;8.90;73.70;;;;;;5112844;28;20516;-77
2022/01/29 01:53:25;;;;;;;1.90;1.20;;;8.90;74.10;;;;;;5112790;28;20040;-76
2022/01/29 01:56:29;;;;;;;4.88;1.60;;;8.80;74.60;;;;;;5112525;28;20051;-77
2022/01/29 01:59:34;;;;;;;3.03;1.50;;;8.70;75.80;;;;;;5112716;28;20039;-77
2022/01/29 02:02:38;;;;;;;3.22;1.75;;;8.60;76.50;;;;;;5112608;28;20039;-77
2022/01/29 02:05:45;;;;;;;3.22;1.88;;;8.60;76.50;;;;;;5111432;28;20463;-79
2022/01/29 02:08:57;;;;;;;3.80;2.20;;;8.60;77.60;;;;;;5111495;28;20047;-77
2022/01/29 02:12:03;;;;;;;3.33;2.00;;;8.50;76.90;;;;;;5112394;28;20036;-79
2022/01/29 02:15:11;;;;;;;7.07;2.30;;;8.60;77.10;;;;;;5112151;28;20043;-76
2022/01/29 02:18:15;;;;;;;4.95;2.13;;;8.60;78.60;;;;;;5111575;28;20526;-77
2022/01/29 02:21:21;;;;;;;5.95;1.85;;;8.60;76.90;;;;;;5112314;28;20032;-77
2022/01/29 02:24:25;;;;;;;4.00;2.03;;;8.60;78.10;;;;;;5111343;28;20051;-77
2022/01/29 02:27:29;;;;;;;10.23;2.15;;;8.60;77.70;;;;;;5111761;28;20047;-77
2022/01/29 02:30:35;;;;;;;4.72;1.67;;;8.60;78.60;;;;;;5111655;28;20054;-77
2022/01/29 02:33:40;;;;;;;4.35;1.90;;;8.60;78.90;;;;;;5111641;28;20808;-76
2022/01/29 02:36:45;;;;;;;4.03;1.80;;;8.60;79.30;;;;;;5111865;28;20511;-77
2022/01/29 02:39:50;;;;;;;3.95;1.83;;;8.60;80.00;;;;;;5111896;28;20031;-77
2022/01/29 02:42:55;;;;;;;4.13;1.90;;;8.60;80.30;;;;;;5111847;28;20482;-77
2022/01/29 02:46:06;;;;;;;4.88;1.77;;;8.50;80.40;;;;;;5111579;28;20035;-76
2022/01/29 02:49:11;;;;;;;5.05;1.75;;;8.60;80.80;;;;;;5111535;28;20040;-76
2022/01/29 02:52:14;;;;;;;5.13;2.20;;;8.60;80.80;;;;;;5110284;28;20043;-76
2022/01/29 02:55:18;;;;;;;5.20;2.00;;;8.60;80.80;;;;;;5111542;28;20048;-76
2022/01/29 02:58:22;;;;;;;4.05;1.92;;;8.50;80.70;;;;;;5111262;28;20119;-77
2022/01/29 03:01:26;;;;;;;3.90;2.13;;;8.50;81.10;;;;;;5111554;28;20035;-76
2022/01/29 03:04:30;;;;;;;3.33;1.70;;;8.50;80.40;;;;;;5110797;28;20372;-76
2022/01/29 03:07:35;;;;;;;4.85;1.50;;;8.50;80.80;;;;;;5111585;28;20044;-76
2022/01/29 03:10:39;;;;;;;3.28;1.70;;;8.50;81.60;;;;;;5111601;28;20471;-76
2022/01/29 03:13:43;;;;;;;4.95;1.85;;;8.40;82.30;;;;;;5111418;28;20040;-76
2022/01/29 03:16:47;;;;;;;3.63;1.63;;;8.40;82.70;;;;;;5113443;28;20403;-77
2022/01/29 03:19:52;;;;;;;4.07;1.67;;;8.30;82.50;;;;;;5111380;28;20031;-76
2022/01/29 03:22:56;;;;;;;4.43;1.67;;;8.40;81.60;;;;;;5111104;28;20040;-76
2022/01/29 03:26:00;;;;;;;3.88;1.90;;;8.40;81.10;;;;;;5111289;28;20036;-76
2022/01/29 03:29:04;;;;;;;5.50;2.50;;;8.40;81.20;;;;;;5111401;28;20395;-76
2022/01/29 03:32:09;;;;;;;3.67;1.83;;;8.30;81.70;;;;;;5111402;28;20364;-76
2022/01/29 03:35:15;;;;;;;4.22;2.08;;;8.30;80.40;;;;;;5111445;28;20044;-76
2022/01/29 03:38:19;;;;;;;3.80;2.25;;;8.30;81.10;;;;;;5110344;28;20044;-76
2022/01/29 03:41:23;;;;;;;6.07;2.00;;;8.20;82.50;;;;;;5111222;28;20047;-76
2022/01/29 03:44:27;;;;;;;6.78;2.17;;;8.20;82.00;;;;;;5111166;28;20031;-76
2022/01/29 03:47:32;;;;;;;5.15;2.10;;;8.40;76.70;;;;;;5110969;28;20047;-79
2022/01/29 03:50:38;;;;;;;4.72;1.88;;;8.40;80.30;;;;;;5111122;28;20044;-79
2022/01/29 03:53:42;;;;;;;3.65;2.13;;;8.30;81.00;;;;;;5111312;28;20043;-79
2022/01/29 03:56:47;;;;;;;3.70;1.88;;;8.40;80.90;;;;;;5098224;28;20043;-79
2022/01/29 03:59:51;;;;;;;5.93;2.38;;;8.50;76.80;;;;;;5111034;28;20035;-79
2022/01/29 04:02:55;;;;;;;8.23;2.33;;;8.30;83.00;;;;;;5111388;28;20035;-79
2022/01/29 04:05:59;;;;;;;4.82;2.35;;;8.10;83.20;;;;;;5114795;28;20495;-79
2022/01/29 04:09:05;;;;;;;6.28;2.70;;;8.00;83.90;;;;;;5113751;28;20035;-77
2022/01/29 04:12:09;;;;;;;6.80;2.50;;;7.90;83.90;;;;;;5114788;28;20032;-76
2022/01/29 04:15:13;;;;;;;7.78;2.88;;;7.90;83.70;;;;;;5114717;28;20039;-77
2022/01/29 04:18:18;;;;;;;9.07;2.40;;;7.90;82.20;;;;;;5114238;28;20044;-77
2022/01/29 04:21:23;;;;;;;5.22;2.38;;;8.00;81.90;;;;;;5114541;28;20031;-77
2022/01/29 04:24:27;;;;;;;4.78;2.25;;;8.00;81.70;;;;;;5114418;28;20036;-77
2022/01/29 04:27:39;;;;;;;9.20;2.42;;;8.00;81.10;;;;;;5101866;28;20032;-76
2022/01/29 04:30:47;;;;;;;7.80;2.35;;;8.10;80.30;;;;;;5101787;28;20043;-76
2022/01/29 04:33:52;;;;;;;5.28;2.13;;;8.10;81.70;;;;;;5114250;28;20036;-76
2022/01/29 04:36:56;;;;;;;6.38;2.20;;;8.10;82.10;;;;;;5113426;28;20047;-77
2022/01/29 04:40:00;;;;;;;3.42;1.80;;;8.00;82.00;;;;;;5114356;28;20036;-77
2022/01/29 04:43:05;;;;;;;6.32;2.15;;;8.00;81.90;;;;;;5113444;28;20383;-77
2022/01/29 04:46:09;;;;;;;3.80;1.90;;;8.00;82.00;;;;;;5113915;28;20471;-77
2022/01/29 04:49:15;;;;;;;4.18;2.05;;;7.90;82.50;;;;;;5113200;28;20047;-77
2022/01/29 04:52:19;;;;;;;3.53;2.10;;;7.90;82.60;;;;;;5113844;28;20035;-76
2022/01/29 04:55:23;;;;;;;5.20;2.40;;;7.90;82.50;;;;;;5113571;28;20043;-77
2022/01/29 04:58:28;;;;;;;5.38;1.73;;;7.90;82.50;;;;;;5113983;28;20412;-77
2022/01/29 05:01:32;;;;;;;6.63;1.95;;;7.90;80.80;;;;;;5113100;28;20035;-77
2022/01/29 05:04:37;;;;;;;8.07;1.85;;;8.00;80.90;;;;;;5113630;28;20039;-76
2022/01/29 05:07:40;;;;;;;4.07;1.88;;;8.00;81.00;;;;;;5112829;28;20040;-76
2022/01/29 05:10:45;;;;;;;10.18;2.53;;;8.00;81.70;;;;;;5113587;28;20613;-77
2022/01/29 05:13:49;;;;;;;5.38;1.85;;;8.00;80.90;;;;;;5113122;28;20510;-77
2022/01/29 05:25:36;;;;;;;4.85;1.75;;;8.10;80.60;;;;;;5113271;28;20051;-77
2022/01/29 05:27:07;;;;;;;11.30;2.35;;;8.00;81.10;;;;;;5112491;28;20040;-77
2022/01/29 05:30:12;;;;;;;7.90;3.60;;;8.10;81.30;;;;;;5112907;28;20046;-77
2022/01/29 05:33:16;;;;;;;15.40;6.18;;;8.00;81.20;;;;;;5113137;28;20040;-77
2022/01/29 05:36:20;;;;;;;10.20;3.67;;;8.00;80.70;;;;;;5112572;28;20046;-79
2022/01/29 05:39:25;;;;;;;5.63;2.85;;;8.10;80.60;;;;;;5112744;28;20109;-77
2022/01/29 05:42:29;;;;;;;4.93;2.33;;;8.10;80.00;;;;;;5111846;28;20035;-77
2022/01/29 05:45:33;;;;;;;4.03;2.20;;;8.10;79.40;;;;;;5111977;28;20047;-76
2022/01/29 05:48:39;;;;;;;3.47;1.48;;;8.20;77.60;;;;;;5112627;28;20043;-77
2022/01/29 05:51:43;;;;;;;5.50;2.20;;;8.20;75.80;;;;;;5112899;28;20043;-77
2022/01/29 05:54:48;;;;;;;4.45;1.42;;;8.30;73.50;;;;;;5112602;28;20031;-77
2022/01/29 05:57:52;;;;;;;16.73;5.35;;;8.40;72.50;;;;;;5112299;28;20055;-78
2022/01/29 06:00:56;;;;;;;10.63;3.63;;;8.60;68.70;;;;;;5112360;28;20034;-78
2022/01/29 06:04:00;;;;;;;6.32;1.35;;;8.70;68.00;;;;;;5112128;28;20062;-77
2022/01/29 06:07:05;;;;;;;1.85;0.95;;;8.80;68.60;;;;;;5112496;28;20471;-78
2022/01/29 06:10:09;;;;;;;3.22;1.35;;;8.90;68.20;;;;;;5111567;28;20031;-77
2022/01/29 06:13:15;;;;;;;4.38;1.30;;;8.90;68.30;;;;;;5112578;28;20475;-77
2022/01/29 06:16:19;;;;;;;3.90;1.50;;;8.90;68.40;;;;;;5111543;28;20051;-77
2022/01/29 06:19:23;;;;;;;11.63;1.63;;;8.90;68.00;;;;;;5112350;28;20474;-77
2022/01/29 06:22:27;;;;;;;5.40;1.42;;;9.00;66.80;;;;;;5111397;28;20042;-77
2022/01/29 06:25:31;;;;;;;2.58;1.52;;;9.00;67.60;;;;;;5111031;28;20495;-78
2022/01/29 06:28:36;;;;;;;2.83;1.20;;;9.00;68.00;;;;;;5112188;28;20036;-78
2022/01/29 06:31:40;;;;;;;7.38;1.30;;;9.00;68.30;;;;;;5111474;28;20043;-77
2022/01/29 06:34:44;;;;;;;3.83;1.50;;;9.00;68.00;;;;;;5111887;28;20032;-77
2022/01/29 06:37:48;;;;;;;5.55;1.90;;;9.00;68.50;;;;;;5111756;28;20043;-77
2022/01/29 06:40:52;;;;;;;3.88;1.67;;;9.00;69.10;;;;;;5111658;28;20036;-65
2022/01/29 06:43:56;;;;;;;4.95;1.33;;;9.00;68.10;;;;;;5111861;28;20487;-65
2022/01/29 06:47:00;;;;;;;4.63;1.55;;;9.00;67.90;;;;;;5111665;28;20044;-65
2022/01/29 06:50:05;;;;;;;2.60;1.05;;;9.10;66.70;;;;;;5111700;28;20035;-65
2022/01/29 06:53:09;;;;;;;6.72;1.23;;;9.10;67.00;;;;;;5111868;28;20031;-66
2022/01/29 06:56:13;;;;;;;4.55;1.40;;;9.20;67.20;;;;;;5111649;28;20051;-65
2022/01/29 06:59:17;;;;;;;5.78;1.25;;;9.20;67.20;;;;;;5111397;28;20040;-65
2022/01/29 07:02:21;;;;;;;3.58;1.23;;;9.30;67.50;;;;;;5111260;28;20613;-65
2022/01/29 07:05:25;;;;;;;3.28;1.17;;;9.30;67.60;;;;;;5111345;28;20476;-65
2022/01/29 07:08:29;;;;;;;4.03;1.20;;;9.30;67.00;;;;;;5111594;28;20039;-65
2022/01/29 07:11:33;;;;;;;3.25;0.90;;;9.30;67.50;;;;;;5111704;28;20028;-65
2022/01/29 07:14:39;;;;;;;5.10;1.80;;;9.30;67.70;;;;;;5111539;28;20031;-66
2022/01/29 07:17:43;;;;;;;4.18;1.55;;;9.40;67.60;;;;;;5111382;28;20043;-66
2022/01/29 07:20:48;;;;;;;3.60;1.60;;;9.50;67.40;;;;;;5111375;28;20039;-65
2022/01/29 07:23:52;;;;;;;4.45;1.35;;;9.60;67.20;;;;;;5109471;28;20044;-65
2022/01/29 07:26:55;;;;;;;2.42;1.10;;;9.70;66.10;;;;;;5109560;28;20043;-65
2022/01/29 07:29:59;;;;;;;4.25;1.60;;;9.70;66.10;;;;;;5110911;28;20475;-67
2022/01/29 07:33:03;;;;;;;5.30;1.88;;;9.80;67.30;;;;;;5111096;28;20044;-66
2022/01/29 07:36:07;;;;;;;3.25;1.45;;;9.90;66.80;;;;;;5110732;28;20490;-65
2022/01/29 07:39:11;;;;;;;6.18;1.80;;;9.90;66.50;;;;;;5114475;28;20376;-67
2022/01/29 07:42:15;;;;;;;5.30;1.65;;;9.90;66.20;;;;;;5114358;28;20039;-65
2022/01/29 07:45:19;;;;;;;6.47;1.65;;;9.90;67.10;;;;;;5115082;28;20031;-66
2022/01/29 07:48:24;;;;;;;4.70;1.40;;;9.90;66.00;;;;;;5114910;28;20039;-66
2022/01/29 07:51:28;;;;;;;10.10;1.92;;;10.00;66.00;;;;;;5115013;28;20078;-66
2022/01/29 07:54:32;;;;;;;5.55;1.80;;;9.90;65.80;;;;;;5114939;28;20058;-65
2022/01/29 07:57:36;;;;;;;4.15;1.88;;;9.90;65.90;;;;;;5112821;28;20056;-65
2022/01/29 08:00:40;;;;;;;6.53;2.00;;;9.80;66.30;;;;;;5114427;28;20044;-66
2022/01/29 08:03:48;;;;;;;8.63;2.08;;;9.80;66.80;;;;;;5114290;28;20368;-66
2022/01/29 08:06:52;;;;;;;6.82;2.55;;;9.70;66.70;;;;;;5114396;28;20043;-64
2022/01/29 08:09:56;;;;;;;8.57;2.05;;;9.70;67.00;;;;;;5112969;28;20035;-67
2022/01/29 08:13:00;;;;;;;7.07;2.80;;;9.70;67.30;;;;;;5113223;28;20036;-66
2022/01/29 08:16:04;;;;;;;10.57;2.90;;;9.70;68.00;;;;;;5114043;28;20035;-65
2022/01/29 08:19:09;;;;;;;10.00;2.33;;;9.70;67.80;;;;;;5113980;28;20050;-65
2022/01/29 08:22:13;;;;;;;7.00;2.50;;;9.80;66.90;;;;;;5114184;28;20043;-65
2022/01/29 08:25:17;;;;;;;6.45;2.20;;;9.70;67.10;;;;;;5114109;28;20058;-65
2022/01/29 08:28:23;;;;;;;8.07;3.15;;;9.80;67.80;;;;;;5113788;28;20039;-64
2022/01/29 08:31:27;;;;;;;4.07;2.03;;;9.90;67.60;;;;;;5113258;28;20036;-67
2022/01/29 08:34:31;;;;;;;5.88;2.08;;;9.80;67.40;;;;;;5113841;28;20031;-65
2022/01/29 08:37:35;;;;;;;9.65;2.17;;;10.00;66.90;;;;;;5114139;28;20055;-65
2022/01/29 08:40:40;;;;;;;10.40;2.40;;;10.10;65.70;;;;;;5114228;28;20046;-67
2022/01/29 08:43:46;;;;;;;4.07;1.80;;;10.10;65.90;;;;;;5114181;28;20047;-66
2022/01/29 08:46:51;;;;;;;14.93;2.63;;;10.20;65.00;;;;;;5113867;28;20043;-65
2022/01/29 08:49:55;;;;;;;7.32;2.10;;;10.20;59.70;;;;;;5112972;28;20117;-65
2022/01/29 08:52:59;;;;;;;12.15;2.13;;;10.10;62.00;;;;;;5113691;28;20068;-65
2022/01/29 08:56:04;;;;;;;6.57;2.17;;;10.00;63.30;;;;;;5113542;28;20497;-65
2022/01/29 08:59:08;;;;;;;9.27;2.28;;;10.00;63.40;;;;;;5113804;28;20050;-65
2022/01/29 09:02:12;;;;;;;12.65;3.85;;;10.20;60.80;;;;;;5113864;28;20059;-65
2022/01/29 09:05:17;;;;;;;10.65;2.20;;;10.40;61.20;;;;;;5113824;28;20050;-65
2022/01/29 09:08:21;;;;;;;6.18;2.33;;;10.60;62.10;;;;;;5113539;28;20395;-65
2022/01/29 09:11:25;;;;;;;7.47;1.92;;;10.70;62.30;;;;;;5113590;28;20046;-66
2022/01/29 09:14:29;;;;;;;7.50;2.80;;;10.80;60.50;;;;;;5112086;28;20045;-66
2022/01/29 09:17:35;;;;;;;7.53;2.42;;;10.90;60.70;;;;;;5112880;28;20510;-65
2022/01/29 09:20:39;;;;;;;8.73;3.22;;;11.00;60.20;;;;;;5112873;28;20079;-66
2022/01/29 09:23:44;;;;;;;8.50;2.65;;;11.00;60.60;;;;;;5113117;28;20039;-65
2022/01/29 09:26:48;;;;;;;6.63;2.88;;;10.90;59.50;;;;;;5113124;28;20039;-65
2022/01/29 09:29:53;;;;;;;12.90;3.03;;;10.90;58.40;;;;;;5112946;28;20050;-67
2022/01/29 09:32:57;;;;;;;7.63;2.92;;;10.80;59.40;;;;;;5112039;28;20043;-68
2022/01/29 09:36:01;;;;;;;6.95;2.63;;;10.90;58.50;;;;;;5112777;28;20050;-67
2022/01/29 09:39:05;;;;;;;8.57;3.92;;;11.00;57.40;;;;;;5112764;28;20503;-68
2022/01/29 09:42:10;;;;;;;4.80;1.80;;;11.10;56.40;;;;;;5112968;28;20097;-67
2022/01/29 09:45:16;;;;;;;8.05;2.60;;;11.20;53.80;;;;;;5112967;28;20054;-67
2022/01/29 09:48:27;;;;;;;8.55;2.78;;;11.10;54.50;;;;;;5112425;28;20079;-69
2022/01/29 09:51:32;;;;;;;8.93;2.90;;;11.20;57.10;;;;;;5112906;28;20152;-65
2022/01/29 09:54:36;;;;;;;11.63;3.72;;;11.20;57.60;;;;;;5112450;28;20050;-65
2022/01/29 09:57:43;;;;;;;8.27;2.97;;;11.30;58.50;;;;;;5112568;28;20066;-68
2022/01/29 10:00:47;;;;;;;9.70;3.28;;;11.30;56.80;;;;;;5112015;28;20181;-65
2022/01/29 10:04:02;;;;;;;11.73;4.20;;;11.30;56.80;;;;;;5112558;28;20504;-65
2022/01/29 10:07:14;;;;;;;11.20;4.07;;;11.30;58.00;;;;;;5112005;28;20054;-66
2022/01/29 10:10:19;;;;;;;11.07;2.90;;;11.30;57.30;;;;;;5112353;28;20046;-66
2022/01/29 10:13:27;;;;;;;8.35;4.55;;;11.30;57.10;;;;;;5112125;28;20042;-65
2022/01/29 10:16:33;;;;;;;5.78;2.63;;;11.30;55.50;;;;;;5111407;28;20067;-65
2022/01/29 10:19:38;;;;;;;12.80;3.00;;;11.30;55.50;;;;;;5111890;28;20050;-66
2022/01/29 10:22:45;;;;;;;14.05;3.90;;;11.40;55.20;;;;;;5112065;28;20529;-66
2022/01/29 10:25:51;;;;;;;8.90;2.92;;;11.50;55.20;;;;;;5112086;28;20490;-65
2022/01/29 10:28:56;;;;;;;7.07;2.50;;;11.60;54.90;;;;;;5111980;28;20070;-66
2022/01/29 10:32:02;;;;;;;8.80;2.45;;;11.70;55.00;;;;;;5111883;28;20047;-66
2022/01/29 10:35:06;;;;;;;12.05;2.30;;;11.80;53.10;;;;;;5111846;28;20050;-66
2022/01/29 10:38:10;;;;;;;5.25;2.40;;;11.70;52.90;;;;;;5111623;28;20402;-66
2022/01/29 10:41:22;;;;;;;10.88;2.88;;;11.70;53.90;;;;;;5111381;28;20043;-66
2022/01/29 10:44:34;;;;;;;8.32;2.33;;;11.80;51.50;;;;;;5111899;28;20411;-67
2022/01/29 10:47:56;;;;;;;13.30;2.22;;;11.90;51.10;;;;;;5111627;28;20132;-65
2022/01/29 10:51:13;;;;;;;3.50;1.90;;;11.80;50.50;;;;;;5111007;28;20042;-66
2022/01/29 10:54:19;;;;;;;7.93;2.30;;;11.90;49.50;;;;;;5111305;28;20042;-66
2022/01/29 10:57:33;;;;;;;7.43;3.10;;;11.80;50.10;;;;;;5111530;28;20051;-66
2022/01/29 11:00:38;;;;;;;4.57;2.15;;;11.80;51.70;;;;;;5111758;28;20042;-66
2022/01/29 11:03:42;;;;;;;5.03;1.90;;;11.70;50.30;;;;;;5111484;28;20051;-66
2022/01/29 11:06:50;;;;;;;6.93;2.25;;;11.70;51.80;;;;;;5111235;28;20042;-66
2022/01/29 11:09:55;;;;;;;8.52;2.47;;;12.00;52.00;;;;;;5111322;28;20119;-65
2022/01/29 11:13:01;;;;;;;4.80;1.65;;;12.20;51.50;;;;;;5110984;28;20387;-65
2022/01/29 11:16:05;;;;;;;8.73;2.78;;;12.00;51.40;;;;;;5111349;28;20396;-66
2022/01/29 11:19:09;;;;;;;4.72;1.83;;;12.10;51.40;;;;;;5111326;28;20051;-66
2022/01/29 11:22:22;;;;;;;4.57;2.00;;;12.10;50.50;;;;;;5111482;28;20126;-65
2022/01/29 11:25:31;;;;;;;11.27;3.00;;;12.20;50.90;;;;;;5111042;28;20050;-64
2022/01/29 11:28:35;;;;;;;6.38;2.05;;;12.10;51.40;;;;;;5111260;28;20050;-65
2022/01/29 11:31:39;;;;;;;4.80;1.30;;;12.00;47.90;;;;;;5110966;28;20047;-65
2022/01/29 11:35:06;;;;;;;5.43;1.60;;;11.90;48.70;;;;;;5110964;28;20407;-66
2022/01/29 11:38:11;;;;;;;3.90;1.45;;;12.00;46.30;;;;;;5110814;28;20054;-66
2022/01/29 11:41:15;;;;;;;4.95;1.33;;;11.80;46.20;;;;;;5111264;28;20058;-65
2022/01/29 11:44:28;;;;;;;7.57;1.75;;;11.80;47.60;;;;;;5110837;28;20055;-65
2022/01/29 11:47:38;;;;;;;6.28;2.13;;;11.90;47.70;;;;;;5110773;28;20051;-65
2022/01/29 11:50:43;;;;;;;6.72;2.40;;;12.00;47.60;;;;;;5110870;28;20050;-65
2022/01/29 11:53:50;;;;;;;4.43;1.40;;;12.00;48.90;;;;;;5110602;28;20058;-65
2022/01/29 11:57:16;;;;;;;8.52;1.35;;;12.00;45.80;;;;;;5109836;28;20502;-64
2022/01/29 12:00:36;;;;;;;10.68;2.05;;;12.00;45.20;;;;;;5110656;28;20059;-65
2022/01/29 12:03:44;;;;;;;9.15;2.03;;;12.00;46.20;;;;;;5110783;28;20601;-64
2022/01/29 12:07:10;;;;;;;7.57;1.70;;;11.90;46.20;;;;;;5110583;28;20043;-66
2022/01/29 12:10:15;;;;;;;3.65;1.30;;;12.00;46.30;;;;;;5110398;28;20379;-65
2022/01/29 12:16:57;;;;;;;4.07;1.30;;;11.90;47.00;;;;;;5110521;28;20039;-65
2022/01/29 12:20:03;;;;;;;6.45;2.00;;;12.00;46.10;;;;;;5110564;28;20059;-65
2022/01/29 12:23:07;;;;;;;8.80;1.77;;;12.00;46.50;;;;;;5110662;28;20043;-65
2022/01/29 12:26:11;;;;;;;6.05;2.50;;;12.10;47.70;;;;;;5113975;28;20059;-65
2022/01/29 12:29:16;;;;;;;5.32;1.55;;;12.10;48.20;;;;;;5114386;28;20047;-65
2022/01/29 12:32:20;;;;;;;8.15;2.20;;;12.30;48.50;;;;;;5114127;28;20050;-65
2022/01/29 12:35:53;;;;;;;12.15;1.75;;;12.20;45.90;;;;;;5113812;28;20474;-65
2022/01/29 12:39:04;;;;;;;3.85;1.80;;;12.10;47.70;;;;;;5114122;28;20437;-64
2022/01/29 12:45:20;;;;;;;8.25;1.85;;;12.20;47.40;;;;;;5114231;28;20054;-64
2022/01/29 12:48:24;;;;;;;5.63;1.40;;;12.20;47.30;;;;;;5113639;28;20522;-64
2022/01/29 12:51:29;;;;;;;5.07;1.55;;;12.10;45.70;;;;;;5114062;28;20047;-64
2022/01/29 12:54:34;;;;;;;15.73;5.20;;;12.10;46.20;;;;;;5112880;28;20035;-64
2022/01/29 12:57:43;;;;;;;5.80;2.83;;;12.20;46.80;;;;;;5113919;28;20062;-65
2022/01/29 13:01:04;;;;;;;7.97;3.20;;;12.20;45.90;;;;;;5113468;28;20054;-64
2022/01/29 13:04:12;;;;;;;10.40;3.85;;;12.20;44.70;;;;;;5113706;28;20043;-65
2022/01/29 13:07:18;;;;;;;6.03;2.60;;;12.30;45.30;;;;;;5113890;28;20058;-64
2022/01/29 13:10:22;;;;;;;4.53;1.50;;;12.20;43.90;;;;;;5113742;28;20391;-66
2022/01/29 13:13:35;;;;;;;8.85;2.20;;;12.20;43.60;;;;;;5113613;28;20051;-65
2022/01/29 13:16:39;;;;;;;7.57;1.50;;;12.30;45.00;;;;;;5113709;28;20105;-65
2022/01/29 13:19:44;;;;;;;8.55;1.92;;;12.30;43.60;;;;;;5113108;28;20055;-66
2022/01/29 13:22:48;;;;;;;10.23;2.47;;;12.20;40.00;;;;;;5113256;28;20035;-65
2022/01/29 13:25:52;;;;;;;6.15;2.10;;;12.20;40.60;;;;;;5113374;28;20046;-66
2022/01/29 13:29:05;;;;;;;7.55;1.48;;;12.10;39.60;;;;;;5113046;28;20047;-65
2022/01/29 13:32:13;;;;;;;5.10;1.00;;;12.00;38.60;;;;;;5113011;28;20047;-65
2022/01/29 13:35:22;;;;;;;4.68;1.30;;;12.00;37.80;;;;;;5111667;28;20046;-66
2022/01/29 13:38:29;;;;;;;3.97;1.55;;;12.00;37.90;;;;;;5112892;28;20062;-65
2022/01/29 13:41:33;;;;;;;11.45;3.75;;;12.00;37.00;;;;;;5112860;28;20035;-65
2022/01/29 13:44:37;;;;;;;11.02;4.38;;;12.10;38.40;;;;;;5112857;28;20050;-66
2022/01/29 13:48:13;;;;;;;6.93;2.33;;;12.10;37.90;;;;;;5112611;28;20063;-65
2022/01/29 13:51:38;;;;;;;7.18;2.63;;;12.10;38.00;;;;;;5112839;28;20509;-67
2022/01/29 13:54:42;;;;;;;4.85;1.52;;;12.10;37.80;;;;;;5112797;28;20051;-65
2022/01/29 13:58:09;;;;;;;10.18;3.35;;;12.10;37.00;;;;;;5112731;28;20054;-67
2022/01/29 14:01:14;;;;;;;9.07;3.17;;;12.10;37.30;;;;;;5112807;28;20051;-67
2022/01/29 14:04:36;;;;;;;10.93;1.58;;;12.10;38.70;;;;;;5112454;28;20047;-65
2022/01/29 14:07:42;;;;;;;7.15;2.40;;;12.10;36.40;;;;;;5112599;28;20050;-66
2022/01/29 14:10:56;;;;;;;8.55;1.50;;;12.10;37.50;;;;;;5112592;28;20042;-66
2022/01/29 14:14:00;;;;;;;7.18;3.03;;;12.10;37.50;;;;;;5112233;28;20043;-66
2022/01/29 14:17:24;;;;;;;3.97;1.45;;;12.10;36.80;;;;;;5112497;28;20046;-66
2022/01/29 14:20:31;;;;;;;7.25;1.85;;;12.00;36.90;;;;;;5111598;28;20510;-66
2022/01/29 14:23:35;;;;;;;3.97;1.83;;;12.00;35.80;;;;;;5112197;28;20046;-64
2022/01/29 14:26:39;;;;;;;11.15;1.90;;;12.00;36.80;;;;;;5111974;28;20062;-65
2022/01/29 14:29:44;;;;;;;12.52;1.92;;;12.00;36.70;;;;;;5111955;28;20050;-66
2022/01/29 14:32:48;;;;;;;4.05;1.58;;;12.00;35.10;;;;;;5112061;28;20043;-64
2022/01/29 14:35:53;;;;;;;5.50;2.22;;;12.00;34.70;;;;;;5111992;28;20054;-65
2022/01/29 14:38:57;;;;;;;2.75;1.50;;;12.00;35.00;;;;;;5111613;28;20062;-65
2022/01/29 14:42:04;;;;;;;5.40;1.90;;;12.00;33.80;;;;;;5111571;28;20046;-64
2022/01/29 14:45:10;;;;;;;8.13;1.88;;;12.00;36.00;;;;;;5109841;28;20063;-65
2022/01/29 14:48:14;;;;;;;13.15;2.22;;;12.00;34.20;;;;;;5109807;28;20043;-65
2022/01/29 14:51:20;;;;;;;8.13;2.45;;;12.10;34.10;;;;;;5111385;28;20379;-65
2022/01/29 14:54:24;;;;;;;7.93;2.72;;;12.00;33.50;;;;;;5111941;28;20046;-66
2022/01/29 14:57:28;;;;;;;9.57;4.45;;;12.00;33.20;;;;;;5111705;28;20038;-65
2022/01/29 15:00:32;;;;;;;8.90;2.13;;;12.00;33.90;;;;;;5111951;28;20054;-66
2022/01/29 15:03:38;;;;;;;7.90;2.38;;;12.00;34.40;;;;;;5111772;28;20050;-66
2022/01/29 15:06:42;;;;;;;6.28;1.90;;;11.90;34.20;;;;;;5111328;28;20478;-64
2022/01/29 15:09:47;;;;;;;5.05;2.70;;;11.90;34.00;;;;;;5111539;28;20121;-65
2022/01/29 15:12:51;;;;;;;4.57;1.77;;;11.90;35.30;;;;;;5111326;28;20584;-65
2022/01/29 15:15:56;;;;;;;4.32;2.15;;;11.90;35.60;;;;;;5111094;28;20042;-65
2022/01/29 15:19:02;;;;;;;4.53;1.83;;;11.80;35.30;;;;;;5110447;28;20062;-65
2022/01/29 15:22:07;;;;;;;3.42;2.20;;;11.80;36.30;;;;;;5111118;28;20051;-65
2022/01/29 15:25:11;;;;;;;7.40;2.58;;;11.80;34.80;;;;;;5109853;28;20043;-65
2022/01/29 15:28:16;;;;;;;5.32;2.08;;;11.70;36.00;;;;;;5110906;28;20043;-65
2022/01/29 15:31:23;;;;;;;5.85;2.00;;;11.70;37.50;;;;;;5111404;28;20046;-65
2022/01/29 15:34:27;;;;;;;3.50;1.67;;;11.70;35.50;;;;;;5111353;28;20698;-65
2022/01/29 15:37:31;;;;;;;5.55;3.05;;;11.70;34.50;;;;;;5111248;28;20062;-65
2022/01/29 15:40:35;;;;;;;5.18;3.55;;;11.70;36.10;;;;;;5111082;28;20474;-65
2022/01/29 15:43:39;;;;;;;13.15;6.15;;;11.70;37.90;;;;;;5110490;28;20382;-64
2022/01/29 15:46:43;;;;;;;8.13;4.75;;;11.70;37.00;;;;;;5110854;28;20046;-64
2022/01/29 15:49:47;;;;;;;10.93;5.00;;;11.60;38.00;;;;;;5110915;28;20063;-64
2022/01/29 15:52:51;;;;;;;8.23;3.97;;;11.60;35.90;;;;;;5110819;28;20205;-65
2022/01/29 15:55:55;;;;;;;6.65;4.15;;;11.60;36.30;;;;;;5110938;28;20043;-65
2022/01/29 15:58:59;;;;;;;7.78;3.45;;;11.50;35.40;;;;;;5112051;28;20050;-64
2022/01/29 16:02:04;;;;;;;7.53;4.18;;;11.40;35.40;;;;;;5114594;28;20039;-65
2022/01/29 16:05:10;;;;;;;6.07;3.47;;;11.50;36.60;;;;;;5114873;28;20054;-64
2022/01/29 16:08:16;;;;;;;6.47;4.05;;;11.40;36.90;;;;;;5114522;28;20050;-65
2022/01/29 16:11:20;;;;;;;12.30;5.70;;;11.40;38.40;;;;;;5114725;28;20038;-65
2022/01/29 16:14:25;;;;;;;5.93;2.95;;;11.30;38.30;;;;;;5114724;28;20047;-64
2022/01/29 16:17:29;;;;;;;16.58;9.40;;;11.30;35.30;;;;;;5114257;28;20069;-64
2022/01/29 16:20:34;;;;;;;11.18;5.75;;;11.30;35.00;;;;;;5114413;28;20494;-64
2022/01/29 16:23:38;;;;;;;33.33;24.02;;;11.30;34.60;;;;;;5114253;28;20035;-64
2022/01/29 16:26:42;;;;;;;12.55;6.85;;;11.30;38.00;;;;;;5114216;28;20050;-64